createdAt,value
2024-03-11T00:00:19.511Z,48.43
2024-03-11T00:02:46.844Z,48.93
2024-03-11T00:05:14.858Z,46.73
2024-03-11T00:07:42.794Z,45.37
2024-03-11T00:10:13.804Z,47.50
2024-03-11T00:12:50.527Z,45.77
2024-03-11T00:15:21.511Z,56.23
2024-03-11T00:17:48.841Z,51.50
2024-03-11T00:20:15.765Z,51.40
2024-03-11T00:22:42.644Z,48.90
2024-03-11T00:25:10.636Z,45.90
2024-03-11T00:27:37.853Z,49.17
2024-03-11T00:30:07.673Z,50.57
2024-03-11T00:32:34.422Z,51.93
2024-03-11T00:35:02.232Z,50.10
2024-03-11T00:37:28.959Z,51.43
2024-03-11T00:39:55.764Z,52.20
2024-03-11T00:42:23.617Z,50.13
2024-03-11T00:44:51.600Z,53.50
2024-03-11T00:47:24.909Z,62.00
2024-03-11T00:49:51.741Z,51.37
2024-03-11T00:52:18.452Z,54.03
2024-03-11T00:54:45.655Z,56.10
2024-03-11T00:57:12.956Z,52.60
2024-03-11T00:59:43.261Z,57.37
2024-03-11T01:02:12.258Z,61.40
2024-03-11T01:04:38.978Z,55.47
2024-03-11T01:07:13.285Z,53.40
2024-03-11T01:09:47.696Z,52.47
2024-03-11T01:12:14.874Z,54.93
2024-03-11T01:14:41.611Z,54.23
2024-03-11T01:17:08.374Z,58.53
2024-03-11T01:19:35.080Z,62.07
2024-03-11T01:22:01.917Z,54.20
2024-03-11T01:24:29.555Z,59.47
2024-03-11T01:26:59.507Z,58.93
2024-03-11T01:29:26.513Z,54.20
2024-03-11T01:31:53.568Z,52.40
2024-03-11T01:34:22.731Z,55.93
2024-03-11T01:36:50.167Z,55.90
2024-03-11T01:39:26.549Z,57.10
2024-03-11T01:41:56.332Z,59.37
2024-03-11T01:44:23.091Z,55.13
2024-03-11T01:46:53.741Z,60.40
2024-03-11T01:49:22.295Z,55.40
2024-03-11T01:51:50.455Z,63.10
2024-03-11T01:54:17.427Z,58.53
2024-03-11T01:56:45.041Z,56.87
2024-03-11T01:59:12.451Z,55.03
2024-03-11T02:01:40.237Z,58.67
2024-03-11T02:04:07.130Z,52.67
2024-03-11T02:06:34.218Z,60.70
2024-03-11T02:09:01.492Z,57.77
2024-03-11T02:11:28.465Z,58.07
2024-03-11T02:13:55.278Z,61.30
2024-03-11T02:16:24.024Z,61.47
2024-03-11T02:18:52.921Z,56.17
2024-03-11T02:21:19.758Z,61.60
2024-03-11T02:23:46.598Z,69.50
2024-03-11T02:26:13.490Z,61.57
2024-03-11T02:28:40.314Z,66.40
2024-03-11T02:31:08.330Z,61.33
2024-03-11T02:33:35.109Z,63.73
2024-03-11T02:36:02.432Z,62.40
2024-03-11T02:38:29.209Z,61.20
2024-03-11T02:40:56.218Z,68.83
2024-03-11T02:43:23.176Z,66.07
2024-03-11T02:45:49.918Z,60.37
2024-03-11T02:48:16.708Z,63.57
2024-03-11T02:50:43.995Z,65.70
2024-03-11T02:53:10.778Z,70.53
2024-03-11T02:55:40.146Z,69.87
2024-03-11T02:58:07.353Z,69.57
2024-03-11T03:00:35.015Z,71.97
2024-03-11T03:03:01.884Z,68.50
2024-03-11T03:05:28.791Z,74.83
2024-03-11T03:07:55.541Z,65.30
2024-03-11T03:10:22.211Z,76.50
2024-03-11T03:12:49.040Z,73.20
2024-03-11T03:15:18.028Z,67.50
2024-03-11T03:17:44.952Z,66.53
2024-03-11T03:20:12.663Z,69.23
2024-03-11T03:22:39.784Z,62.40
2024-03-11T03:25:07.577Z,67.23
2024-03-11T03:27:34.474Z,59.20
2024-03-11T03:30:01.246Z,65.40
2024-03-11T03:32:28.748Z,57.80
2024-03-11T03:34:55.714Z,63.43
2024-03-11T03:37:23.352Z,65.23
2024-03-11T03:39:50.087Z,60.17
2024-03-11T03:42:16.773Z,57.40
2024-03-11T03:44:43.797Z,66.73
2024-03-11T03:47:11.049Z,57.90
2024-03-11T03:49:37.916Z,54.77
2024-03-11T03:52:06.357Z,49.43
2024-03-11T03:54:33.330Z,54.00
2024-03-11T03:57:00.090Z,58.07
2024-03-11T03:59:29.289Z,52.83
2024-03-11T04:01:56.586Z,48.57
2024-03-11T04:04:23.338Z,51.30
2024-03-11T04:06:50.063Z,49.37
2024-03-11T04:09:17.040Z,53.47
2024-03-11T04:11:43.877Z,61.77
2024-03-11T04:14:12.020Z,61.70
2024-03-11T04:16:38.857Z,68.33
2024-03-11T04:19:06.758Z,76.87
2024-03-11T04:21:34.342Z,71.93
2024-03-11T04:24:01.653Z,80.27
2024-03-11T04:26:30.812Z,75.30
2024-03-11T04:28:57.665Z,79.10
2024-03-11T04:31:25.196Z,78.83
2024-03-11T04:33:52.116Z,81.27
2024-03-11T04:36:20.073Z,79.10
2024-03-11T04:38:46.853Z,83.47
2024-03-11T04:41:13.669Z,82.20
2024-03-11T04:43:40.415Z,75.47
2024-03-11T04:46:10.850Z,80.87
2024-03-11T04:48:37.673Z,74.03
2024-03-11T04:51:06.025Z,80.53
2024-03-11T04:53:32.905Z,79.00
2024-03-11T04:55:59.885Z,84.03
2024-03-11T04:58:26.581Z,83.03
2024-03-11T05:00:53.382Z,79.70
2024-03-11T05:03:20.103Z,78.10
2024-03-11T05:05:47.542Z,81.87
2024-03-11T05:08:14.836Z,80.43
2024-03-11T05:10:42.155Z,85.97
2024-03-11T05:13:09.256Z,87.00
2024-03-11T05:15:36.027Z,84.47
2024-03-11T05:18:04.575Z,84.27
2024-03-11T05:20:31.497Z,93.13
2024-03-11T05:22:58.266Z,84.00
2024-03-11T05:25:25.376Z,87.30
2024-03-11T05:27:52.875Z,89.13
2024-03-11T05:30:20.210Z,87.13
2024-03-11T05:32:47.952Z,88.60
2024-03-11T05:35:15.895Z,81.77
2024-03-11T05:37:43.303Z,83.47
2024-03-11T05:40:13.234Z,96.23
2024-03-11T05:42:43.691Z,101.87
2024-03-11T05:45:14.164Z,90.53
2024-03-11T05:47:42.969Z,103.50
2024-03-11T05:50:10.555Z,109.17
2024-03-11T05:52:38.567Z,109.60
2024-03-11T05:55:12.841Z,114.07
2024-03-11T05:57:44.848Z,109.00
2024-03-11T06:00:16.555Z,103.17
2024-03-11T06:02:45.157Z,110.80
2024-03-11T06:05:12.299Z,115.17
2024-03-11T06:07:39.166Z,107.27
2024-03-11T06:10:09.104Z,110.30
2024-03-11T06:12:36.116Z,102.53
2024-03-11T06:15:03.038Z,111.30
2024-03-11T06:17:30.994Z,119.07
2024-03-11T06:19:58.891Z,118.60
2024-03-11T06:22:28.445Z,113.03
2024-03-11T06:24:55.803Z,112.63
2024-03-11T06:27:22.617Z,106.57
2024-03-11T06:29:50.631Z,94.87
2024-03-11T06:32:18.346Z,100.93
2024-03-11T06:34:45.123Z,111.57
2024-03-11T06:37:12.198Z,104.27
2024-03-11T06:39:40.728Z,114.13
2024-03-11T06:42:07.763Z,99.13
2024-03-11T06:44:40.636Z,106.20
2024-03-11T06:47:15.895Z,101.47
2024-03-11T06:49:42.709Z,99.43
2024-03-11T06:52:10.288Z,101.23
2024-03-11T06:54:37.736Z,105.00
2024-03-11T06:57:07.114Z,109.23
2024-03-11T06:59:34.604Z,108.30
2024-03-11T07:02:01.400Z,97.67
2024-03-11T07:04:28.153Z,102.60
2024-03-11T07:06:54.912Z,105.63
2024-03-11T07:09:21.630Z,111.90
2024-03-11T07:11:48.464Z,106.63
2024-03-11T07:14:16.064Z,109.73
2024-03-11T07:16:44.621Z,119.60
2024-03-11T07:19:11.902Z,134.97
2024-03-11T07:21:40.066Z,139.90
2024-03-11T07:24:07.493Z,133.50
2024-03-11T07:26:34.331Z,134.97
2024-03-11T07:29:01.562Z,147.60
2024-03-11T07:31:28.353Z,146.90
2024-03-11T07:33:55.457Z,137.30
2024-03-11T07:36:22.869Z,135.53
2024-03-11T07:38:49.832Z,141.80
2024-03-11T07:41:16.701Z,157.77
2024-03-11T07:43:43.508Z,164.33
2024-03-11T07:46:12.445Z,157.63
2024-03-11T07:48:40.451Z,153.53
2024-03-11T07:51:09.026Z,143.40
2024-03-11T07:53:36.734Z,159.83
2024-03-11T07:56:05.516Z,139.43
2024-03-11T07:58:35.855Z,137.50
2024-03-11T08:01:03.427Z,114.97
2024-03-11T08:03:30.815Z,107.10
2024-03-11T08:05:57.625Z,80.80
2024-03-11T08:08:25.642Z,82.27
2024-03-11T08:10:52.497Z,76.10
2024-03-11T08:13:19.868Z,61.37
2024-03-11T08:15:46.769Z,68.73
2024-03-11T08:18:14.597Z,68.10
2024-03-11T08:20:41.676Z,43.53
2024-03-11T08:23:09.315Z,33.20
2024-03-11T08:25:36.742Z,32.80
2024-03-11T08:28:03.780Z,23.70
2024-03-11T08:30:32.050Z,17.10
2024-03-11T08:32:59.334Z,22.47
2024-03-11T08:35:26.556Z,18.83
2024-03-11T08:37:53.752Z,15.07
2024-03-11T08:40:22.982Z,16.47
2024-03-11T08:42:51.337Z,13.07
2024-03-11T08:45:24.181Z,13.10
2024-03-11T08:47:52.049Z,15.80
2024-03-11T08:50:19.026Z,14.13
2024-03-11T08:52:49.701Z,13.23
2024-03-11T08:55:17.576Z,15.30
2024-03-11T08:57:46.667Z,11.23
2024-03-11T09:00:16.933Z,10.57
2024-03-11T09:02:45.851Z,11.03
2024-03-11T09:05:19.862Z,11.27
2024-03-11T09:07:48.016Z,9.90
2024-03-11T09:10:15.902Z,7.80
2024-03-11T09:12:43.686Z,7.83
2024-03-11T09:15:17.773Z,7.07
2024-03-11T09:17:49.506Z,9.43
2024-03-11T09:20:16.882Z,6.93
2024-03-11T09:22:47.075Z,7.30
2024-03-11T09:25:25.836Z,10.47
2024-03-11T09:28:02.652Z,8.00
2024-03-11T09:30:32.696Z,6.93
2024-03-11T09:32:59.766Z,5.20
2024-03-11T09:35:26.561Z,9.20
2024-03-11T09:37:53.461Z,8.27
2024-03-11T09:40:25.513Z,7.17
2024-03-11T09:42:56.695Z,7.70
2024-03-11T09:45:27.370Z,6.23
2024-03-11T09:47:58.636Z,4.97
2024-03-11T09:50:35.197Z,4.73
2024-03-11T09:53:05.434Z,3.97
2024-03-11T09:55:33.065Z,4.40
2024-03-11T09:58:13.693Z,3.43
2024-03-11T10:00:50.450Z,6.40
2024-03-11T10:03:23.728Z,5.73
2024-03-11T10:06:01.096Z,4.10
2024-03-11T10:08:31.074Z,2.47
2024-03-11T10:11:14.182Z,2.10
2024-03-11T10:13:42.104Z,3.20
2024-03-11T10:16:20.142Z,2.33
2024-03-11T10:18:54.071Z,2.70
2024-03-11T10:21:21.194Z,1.90
2024-03-11T10:23:51.818Z,3.77
2024-03-11T10:26:19.021Z,3.77
2024-03-11T10:28:50.674Z,3.60
2024-03-11T10:31:25.322Z,1.57
2024-03-11T10:33:57.597Z,2.63
2024-03-11T10:36:26.419Z,3.40
2024-03-11T10:38:58.631Z,3.00
2024-03-11T10:41:26.291Z,2.00
2024-03-11T10:43:56.220Z,2.97
2024-03-11T10:46:25.840Z,2.13
2024-03-11T10:48:53.092Z,1.50
2024-03-11T10:51:22.713Z,3.20
2024-03-11T10:53:54.791Z,3.87
2024-03-11T10:56:27.174Z,1.83
2024-03-11T10:58:57.458Z,4.40
2024-03-11T11:01:34.529Z,2.00
2024-03-11T11:04:14.791Z,4.70
2024-03-11T11:06:46.048Z,3.50
2024-03-11T11:09:14.059Z,2.50
2024-03-11T11:11:52.314Z,4.00
2024-03-11T11:14:19.697Z,4.60
2024-03-11T11:16:46.879Z,2.00
2024-03-11T11:19:15.515Z,2.40
2024-03-11T11:21:44.657Z,3.03
2024-03-11T11:24:34.091Z,2.47
2024-03-11T11:27:07.069Z,3.10
2024-03-11T11:29:34.421Z,3.33
2024-03-11T11:32:04.299Z,3.00
2024-03-11T11:34:46.026Z,2.53
2024-03-11T11:37:23.331Z,3.67
2024-03-11T11:39:55.642Z,3.03
2024-03-11T11:42:36.690Z,1.80
2024-03-11T11:45:07.464Z,2.90
2024-03-11T11:47:34.875Z,4.30
2024-03-11T11:50:02.430Z,3.07
2024-03-11T11:52:30.223Z,3.33
2024-03-11T11:54:57.545Z,2.47
2024-03-11T11:57:25.976Z,4.00
2024-03-11T11:59:56.585Z,3.50
2024-03-11T12:02:29.247Z,2.60
2024-03-11T12:04:58.325Z,2.80
2024-03-11T12:07:26.403Z,2.20
2024-03-11T12:09:55.869Z,2.30
2024-03-11T12:12:31.264Z,1.57
2024-03-11T12:15:01.611Z,2.40
2024-03-11T12:17:31.018Z,2.47
2024-03-11T12:20:25.353Z,2.00
2024-03-11T12:22:53.545Z,1.23
2024-03-11T12:25:20.371Z,2.60
2024-03-11T12:27:59.950Z,2.23
2024-03-11T12:30:39.522Z,2.03
2024-03-11T12:33:09.886Z,2.37
2024-03-11T12:35:39.180Z,1.30
2024-03-11T12:38:08.355Z,1.70
2024-03-11T12:40:54.160Z,2.27
2024-03-11T12:43:31.036Z,2.10
2024-03-11T12:46:04.309Z,2.50
2024-03-11T12:48:32.737Z,2.67
2024-03-11T12:51:01.889Z,2.60
2024-03-11T12:53:30.678Z,1.97
2024-03-11T12:56:14.088Z,2.97
2024-03-11T12:58:41.390Z,2.17
2024-03-11T13:01:17.433Z,1.60
2024-03-11T13:03:47.597Z,2.10
2024-03-11T13:06:19.520Z,2.23
2024-03-11T13:08:46.652Z,2.20
2024-03-11T13:11:17.490Z,2.90
2024-03-11T13:13:44.570Z,2.70
2024-03-11T13:16:18.063Z,2.30
2024-03-11T13:18:48.792Z,2.80
2024-03-11T13:21:20.381Z,2.53
2024-03-11T13:23:48.886Z,2.10
2024-03-11T13:26:17.237Z,1.83
2024-03-11T13:28:44.463Z,2.77
2024-03-11T13:31:13.891Z,3.30
2024-03-11T13:33:45.674Z,2.30
2024-03-11T13:36:14.031Z,2.33
2024-03-11T13:38:42.184Z,2.27
2024-03-11T13:41:09.678Z,1.90
2024-03-11T13:43:40.282Z,3.17
2024-03-11T13:46:07.149Z,3.13
2024-03-11T13:48:33.907Z,2.27
2024-03-11T13:51:00.728Z,2.60
2024-03-11T13:53:29.627Z,4.07
2024-03-11T13:55:57.081Z,2.73
2024-03-11T13:58:25.549Z,2.83
2024-03-11T14:00:53.150Z,2.70
2024-03-11T14:03:20.618Z,1.67
2024-03-11T14:05:47.821Z,2.40
2024-03-11T14:08:14.877Z,2.83
2024-03-11T14:10:43.918Z,1.20
2024-03-11T14:13:10.781Z,1.30
2024-03-11T14:15:37.862Z,2.83
2024-03-11T14:18:06.954Z,2.90
2024-03-11T14:20:34.012Z,1.90
2024-03-11T14:23:01.773Z,3.83
2024-03-11T14:25:32.443Z,3.03
2024-03-11T14:28:00.226Z,2.13
2024-03-11T14:30:35.639Z,2.93
2024-03-11T14:33:08.414Z,4.60
2024-03-11T14:35:36.823Z,4.10
2024-03-11T14:38:03.620Z,5.53
2024-03-11T14:40:30.708Z,3.43
2024-03-11T14:43:01.978Z,3.80
2024-03-11T14:45:33.475Z,3.33
2024-03-11T14:48:02.518Z,3.73
2024-03-11T14:50:30.706Z,3.70
2024-03-11T14:52:58.553Z,3.80
2024-03-11T14:55:37.935Z,3.93
2024-03-11T14:58:09.218Z,2.93
2024-03-11T15:00:50.310Z,5.43
2024-03-11T15:03:19.158Z,4.43
2024-03-11T15:05:46.814Z,4.93
2024-03-11T15:08:15.184Z,2.53
2024-03-11T15:10:43.964Z,4.70
2024-03-11T15:13:12.256Z,4.10
2024-03-11T15:15:42.368Z,2.90
2024-03-11T15:18:15.958Z,3.57
2024-03-11T15:20:49.940Z,3.53
2024-03-11T15:23:25.451Z,4.80
2024-03-11T15:26:00.130Z,3.97
2024-03-11T15:28:27.560Z,5.50
2024-03-11T15:30:55.972Z,6.17
2024-03-11T15:33:24.366Z,5.30
2024-03-11T15:35:52.053Z,7.73
2024-03-11T15:38:23.194Z,5.67
2024-03-11T15:40:51.079Z,8.70
2024-03-11T15:43:18.433Z,4.87
2024-03-11T15:45:46.983Z,7.57
2024-03-11T15:48:14.871Z,5.33
2024-03-11T15:50:42.102Z,5.90
2024-03-11T15:53:14.280Z,7.47
2024-03-11T15:55:41.372Z,4.37
2024-03-11T15:58:08.621Z,5.57
2024-03-11T16:00:37.154Z,5.47
2024-03-11T16:03:10.027Z,3.40
2024-03-11T16:05:41.051Z,2.37
2024-03-11T16:08:15.278Z,1.37
2024-03-11T16:10:43.937Z,3.47
2024-03-11T16:13:14.152Z,4.77
2024-03-11T16:15:41.050Z,6.07
2024-03-11T16:18:08.600Z,3.43
2024-03-11T16:20:35.512Z,4.53
2024-03-11T16:23:02.198Z,4.30
2024-03-11T16:25:30.626Z,3.70
2024-03-11T16:27:59.945Z,3.57
2024-03-11T16:30:27.378Z,7.33
2024-03-11T16:32:56.820Z,3.30
2024-03-11T16:35:26.535Z,2.93
2024-03-11T16:37:54.695Z,5.43
2024-03-11T16:40:29.127Z,8.00
2024-03-11T16:43:10.436Z,4.27
2024-03-11T16:45:38.418Z,4.57
2024-03-11T16:48:07.070Z,5.70
2024-03-11T16:50:34.063Z,5.53
2024-03-11T16:53:07.199Z,7.13
2024-03-11T16:55:34.119Z,5.90
2024-03-11T16:58:02.097Z,7.20
2024-03-11T17:00:34.984Z,7.50
2024-03-11T17:03:02.565Z,6.27
2024-03-11T17:05:31.536Z,5.70
2024-03-11T17:07:59.225Z,6.33
2024-03-11T17:10:28.795Z,6.20
2024-03-11T17:12:57.081Z,4.97
2024-03-11T17:15:31.446Z,6.57
2024-03-11T17:18:00.678Z,5.93
2024-03-11T17:20:39.425Z,6.90
2024-03-11T17:23:09.177Z,8.33
2024-03-11T17:25:37.559Z,10.87
2024-03-11T17:28:07.436Z,9.43
2024-03-11T17:30:35.530Z,10.33
2024-03-11T17:33:15.084Z,9.07
2024-03-11T17:35:46.389Z,10.23
2024-03-11T17:38:14.206Z,7.43
2024-03-11T17:40:43.153Z,7.53
2024-03-11T17:43:10.617Z,12.50
2024-03-11T17:45:40.400Z,7.30
2024-03-11T17:48:08.997Z,7.83
2024-03-11T17:50:36.836Z,7.33
2024-03-11T17:53:04.607Z,8.70
2024-03-11T17:55:32.214Z,10.30
2024-03-11T17:58:01.424Z,10.00
2024-03-11T18:00:29.478Z,14.90
2024-03-11T18:02:58.450Z,11.00
2024-03-11T18:05:27.404Z,10.27
2024-03-11T18:07:55.220Z,11.43
2024-03-11T18:10:26.966Z,18.20
2024-03-11T18:12:57.577Z,12.80
2024-03-11T18:15:25.325Z,11.90
2024-03-11T18:17:54.056Z,10.63
2024-03-11T18:20:24.647Z,13.20
2024-03-11T18:22:54.827Z,12.13
2024-03-11T18:25:26.168Z,13.83
2024-03-11T18:28:02.824Z,13.30
2024-03-11T18:30:29.844Z,14.27
2024-03-11T18:32:57.836Z,14.27
2024-03-11T18:35:26.700Z,18.80
2024-03-11T18:38:00.456Z,16.90
2024-03-11T18:40:27.411Z,17.27
2024-03-11T18:42:55.165Z,20.07
2024-03-11T18:45:27.270Z,17.40
2024-03-11T18:47:56.119Z,16.30
2024-03-11T18:50:25.125Z,16.80
2024-03-11T18:52:59.568Z,16.30
2024-03-11T18:55:30.666Z,17.67
2024-03-11T18:57:58.646Z,20.03
2024-03-11T19:00:29.541Z,15.30
2024-03-11T19:02:58.084Z,18.10
2024-03-11T19:05:25.475Z,19.30
2024-03-11T19:07:52.491Z,24.90
2024-03-11T19:10:23.286Z,22.40
2024-03-11T19:12:52.069Z,18.20
2024-03-11T19:15:21.186Z,19.07
2024-03-11T19:17:48.922Z,20.93
2024-03-11T19:20:17.918Z,22.17
2024-03-11T19:22:46.679Z,24.27
2024-03-11T19:25:19.682Z,20.80
2024-03-11T19:27:47.447Z,25.27
2024-03-11T19:30:14.818Z,18.20
2024-03-11T19:32:43.003Z,20.80
2024-03-11T19:35:17.588Z,21.37
2024-03-11T19:38:27.049Z,23.07
2024-03-11T19:41:13.583Z,23.27
2024-03-11T19:43:46.220Z,23.70
2024-03-11T19:46:29.779Z,24.80
2024-03-11T19:49:37.031Z,21.90
2024-03-11T19:52:55.869Z,24.63
2024-03-11T19:55:56.686Z,20.10
2024-03-11T19:59:14.463Z,21.60
2024-03-11T20:02:04.862Z,22.60
2024-03-11T20:04:44.000Z,22.23
2024-03-11T20:07:55.264Z,24.10
2024-03-11T20:10:41.828Z,25.43
2024-03-11T20:13:32.359Z,28.23
2024-03-11T20:16:20.436Z,23.23
2024-03-11T20:19:18.471Z,26.10
2024-03-11T20:22:11.385Z,27.10
2024-03-11T20:25:13.955Z,26.00
2024-03-11T20:28:02.105Z,28.43
2024-03-11T20:30:42.098Z,23.77
2024-03-11T20:33:10.495Z,27.53
2024-03-11T20:35:38.665Z,29.00
2024-03-11T20:38:05.451Z,26.60
2024-03-11T20:40:34.195Z,27.13
2024-03-11T20:43:01.248Z,27.80
2024-03-11T20:45:28.347Z,26.57
2024-03-11T20:47:55.522Z,24.93
2024-03-11T20:50:22.364Z,30.03
2024-03-11T20:52:49.659Z,30.33
2024-03-11T20:55:16.619Z,22.53
2024-03-11T20:57:44.302Z,21.90
2024-03-11T21:00:17.591Z,20.53
2024-03-11T21:02:46.800Z,20.60
2024-03-11T21:05:16.726Z,17.53
2024-03-11T21:07:43.644Z,13.63
2024-03-11T21:10:11.003Z,11.47
2024-03-11T21:12:37.951Z,12.17
2024-03-11T21:15:12.746Z,10.73
2024-03-11T21:17:42.626Z,11.57
2024-03-11T21:20:24.353Z,9.73
2024-03-11T21:22:53.625Z,10.77
2024-03-11T21:25:28.130Z,8.73
2024-03-11T21:27:56.623Z,7.93
2024-03-11T21:30:24.905Z,9.37
2024-03-11T21:32:52.221Z,8.50
2024-03-11T21:35:20.736Z,7.20
2024-03-11T21:37:47.985Z,10.07
2024-03-11T21:40:15.541Z,11.23
2024-03-11T21:42:45.182Z,10.67
2024-03-11T21:45:11.947Z,7.80
2024-03-11T21:47:38.981Z,12.53
2024-03-11T21:50:06.508Z,9.67
2024-03-11T21:52:33.936Z,8.33
2024-03-11T21:55:01.499Z,9.13
2024-03-11T21:57:29.000Z,8.00
2024-03-11T21:59:57.813Z,8.57
2024-03-11T22:02:25.945Z,7.03
2024-03-11T22:04:56.515Z,8.70
2024-03-11T22:07:25.684Z,8.57
2024-03-11T22:09:56.962Z,7.03
2024-03-11T22:12:23.949Z,8.20
2024-03-11T22:14:50.794Z,8.00
2024-03-11T22:17:17.804Z,7.30
2024-03-11T22:19:45.609Z,8.20
2024-03-11T22:22:12.908Z,6.87
2024-03-11T22:24:42.820Z,8.20
2024-03-11T22:27:11.443Z,9.17
2024-03-11T22:29:38.172Z,7.80
2024-03-11T22:32:08.145Z,7.70
2024-03-11T22:34:34.829Z,8.43
2024-03-11T22:37:01.985Z,7.10
2024-03-11T22:39:29.183Z,6.87
2024-03-11T22:42:12.632Z,8.20
2024-03-11T22:44:40.247Z,6.23
2024-03-11T22:47:10.120Z,9.20
2024-03-11T22:49:40.402Z,8.00
2024-03-11T22:52:08.028Z,10.60
2024-03-11T22:54:34.989Z,6.50
2024-03-11T22:57:10.414Z,12.13
2024-03-11T22:59:39.464Z,8.40
2024-03-11T23:02:09.342Z,7.40
2024-03-11T23:04:36.102Z,8.77
2024-03-11T23:07:03.282Z,7.10
2024-03-11T23:09:30.405Z,10.33
2024-03-11T23:11:57.271Z,7.80
2024-03-11T23:14:26.351Z,10.00
2024-03-11T23:16:53.106Z,8.73
2024-03-11T23:19:19.797Z,9.23
2024-03-11T23:21:47.829Z,12.13
2024-03-11T23:24:15.243Z,9.93
2024-03-11T23:26:41.953Z,8.47
2024-03-11T23:29:11.403Z,9.60
2024-03-11T23:31:38.108Z,11.93
2024-03-11T23:34:04.992Z,9.50
2024-03-11T23:36:31.871Z,9.33
2024-03-11T23:38:59.235Z,10.10
2024-03-11T23:41:28.011Z,14.50
2024-03-11T23:43:55.336Z,14.70
2024-03-11T23:46:22.690Z,19.70
2024-03-11T23:48:49.537Z,18.93
2024-03-11T23:51:17.116Z,18.43
2024-03-11T23:53:46.970Z,19.00
2024-03-11T23:56:15.781Z,13.10
2024-03-11T23:58:42.953Z,14.63
